createdAt,value
2022-09-30T00:01:50.784Z,2.47
2022-09-30T00:04:23.812Z,2.25
2022-09-30T00:06:52.265Z,2.70
2022-09-30T00:09:20.607Z,2.22
2022-09-30T00:11:48.033Z,2.70
2022-09-30T00:14:18.825Z,2.10
2022-09-30T00:16:46.926Z,1.92
2022-09-30T00:19:15.319Z,2.20
2022-09-30T00:21:42.832Z,1.92
2022-09-30T00:24:10.575Z,1.60
2022-09-30T00:26:37.988Z,1.77
2022-09-30T00:29:05.409Z,1.95
2022-09-30T00:31:34.734Z,1.38
2022-09-30T00:34:07.000Z,1.75
2022-09-30T00:36:39.505Z,1.75
2022-09-30T00:39:08.877Z,1.25
2022-09-30T00:41:37.567Z,1.20
2022-09-30T00:44:43.245Z,1.15
2022-09-30T00:47:38.418Z,1.20
2022-09-30T00:50:46.089Z,1.42
2022-09-30T00:53:18.195Z,1.08
2022-09-30T00:56:10.068Z,1.20
2022-09-30T00:58:45.157Z,1.10
2022-09-30T01:01:14.304Z,1.58
2022-09-30T01:03:47.989Z,1.10
2022-09-30T01:06:15.290Z,1.55
2022-09-30T01:08:45.460Z,1.23
2022-09-30T01:11:15.736Z,1.13
2022-09-30T01:13:48.371Z,0.93
2022-09-30T01:16:52.851Z,1.30
2022-09-30T01:20:08.501Z,1.20
2022-09-30T01:22:54.694Z,1.17
2022-09-30T01:26:03.170Z,1.05
2022-09-30T01:29:05.309Z,0.90
2022-09-30T01:32:07.075Z,1.20
2022-09-30T01:35:04.908Z,1.13
2022-09-30T01:37:51.040Z,1.00
2022-09-30T01:40:37.037Z,1.25
2022-09-30T01:43:37.047Z,1.42
2022-09-30T01:49:48.747Z,0.77
2022-09-30T01:52:40.335Z,1.42
2022-09-30T01:55:22.494Z,1.30
2022-09-30T01:58:04.721Z,1.88
2022-09-30T02:00:37.076Z,1.30
2022-09-30T02:03:33.874Z,1.23
2022-09-30T02:06:22.427Z,2.17
2022-09-30T02:09:05.293Z,1.73
2022-09-30T02:11:36.469Z,1.55
2022-09-30T02:14:11.368Z,1.45
2022-09-30T02:16:43.781Z,1.10
2022-09-30T02:19:20.642Z,1.08
2022-09-30T02:21:55.877Z,1.05
2022-09-30T02:24:28.444Z,0.95
2022-09-30T02:27:01.870Z,0.88
2022-09-30T02:29:36.057Z,0.80
2022-09-30T02:32:13.925Z,1.23
2022-09-30T02:34:50.122Z,1.42
2022-09-30T02:38:01.099Z,0.93
2022-09-30T02:41:07.072Z,1.15
2022-09-30T02:43:56.557Z,1.00
2022-09-30T02:47:07.838Z,1.30
2022-09-30T02:49:50.157Z,1.27
2022-09-30T02:52:44.109Z,1.60
2022-09-30T02:55:30.914Z,1.35
2022-09-30T02:58:35.271Z,1.60
2022-09-30T03:01:03.905Z,1.10
2022-09-30T03:03:50.155Z,2.08
2022-09-30T03:06:22.086Z,1.58
2022-09-30T03:08:54.740Z,1.30
2022-09-30T03:11:28.636Z,1.50
2022-09-30T03:13:59.297Z,1.45
2022-09-30T03:16:52.035Z,1.67
2022-09-30T03:19:45.598Z,1.30
2022-09-30T03:22:33.266Z,1.30
2022-09-30T03:25:06.848Z,1.50
2022-09-30T03:28:03.267Z,1.10
2022-09-30T03:30:35.461Z,1.87
2022-09-30T03:33:25.911Z,1.40
2022-09-30T03:35:59.577Z,1.20
2022-09-30T03:38:52.317Z,1.20
2022-09-30T03:41:33.273Z,1.40
2022-09-30T03:46:59.987Z,1.40
2022-09-30T03:49:38.970Z,1.23
2022-09-30T03:52:14.871Z,1.27
2022-09-30T03:54:54.022Z,1.30
2022-09-30T03:57:24.468Z,1.20
2022-09-30T03:59:52.131Z,1.23
2022-09-30T04:02:19.715Z,1.30
2022-09-30T04:04:47.187Z,1.42
2022-09-30T04:07:14.639Z,1.35
2022-09-30T04:09:42.166Z,1.10
2022-09-30T04:12:10.634Z,1.25
2022-09-30T04:14:38.062Z,1.63
2022-09-30T04:17:06.168Z,1.58
2022-09-30T04:19:42.979Z,1.50
2022-09-30T04:22:10.633Z,1.90
2022-09-30T04:24:39.366Z,1.35
2022-09-30T04:27:06.836Z,1.63
2022-09-30T04:29:34.097Z,1.25
2022-09-30T04:32:01.651Z,1.52
2022-09-30T04:34:28.883Z,1.95
2022-09-30T04:36:56.069Z,1.73
2022-09-30T04:39:23.544Z,1.98
2022-09-30T04:41:53.836Z,1.48
2022-09-30T04:44:21.426Z,1.60
2022-09-30T04:46:48.726Z,1.48
2022-09-30T04:49:15.982Z,1.45
2022-09-30T04:51:46.010Z,1.40
2022-09-30T04:54:13.536Z,1.58
2022-09-30T04:56:40.741Z,1.80
2022-09-30T04:59:08.146Z,1.45
2022-09-30T05:01:35.456Z,1.38
2022-09-30T05:04:05.447Z,1.58
2022-09-30T05:06:33.126Z,1.60
2022-09-30T05:09:00.552Z,1.58
2022-09-30T05:11:27.903Z,1.60
2022-09-30T05:13:55.541Z,2.38
2022-09-30T05:16:22.861Z,1.80
2022-09-30T05:18:50.182Z,1.58
2022-09-30T05:21:20.629Z,1.40
2022-09-30T05:23:48.213Z,1.58
2022-09-30T05:26:15.723Z,1.60
2022-09-30T05:28:43.327Z,1.60
2022-09-30T05:31:12.325Z,2.03
2022-09-30T05:33:40.444Z,1.92
2022-09-30T05:36:11.992Z,1.58
2022-09-30T05:38:39.189Z,1.88
2022-09-30T05:41:11.502Z,1.52
2022-09-30T05:43:40.321Z,1.35
2022-09-30T05:46:08.094Z,1.88
2022-09-30T05:48:35.431Z,1.83
2022-09-30T05:51:03.149Z,2.65
2022-09-30T05:53:32.156Z,1.63
2022-09-30T05:56:00.316Z,2.03
2022-09-30T05:58:27.659Z,1.83
2022-09-30T06:00:55.715Z,1.95
2022-09-30T06:03:23.165Z,1.98
2022-09-30T06:05:56.811Z,2.00
2022-09-30T06:08:24.667Z,2.22
2022-09-30T06:10:52.513Z,1.48
2022-09-30T06:13:21.325Z,1.70
2022-09-30T06:15:59.066Z,2.60
2022-09-30T06:18:27.592Z,1.90
2022-09-30T06:21:03.360Z,1.70
2022-09-30T06:23:32.074Z,2.67
2022-09-30T06:33:22.288Z,1.92
2022-09-30T06:35:51.176Z,1.52
2022-09-30T06:38:20.386Z,2.00
2022-09-30T06:40:50.773Z,2.38
2022-09-30T06:43:21.941Z,1.95
2022-09-30T06:45:51.618Z,1.80
2022-09-30T06:48:32.586Z,2.42
2022-09-30T06:51:03.280Z,2.10
2022-09-30T06:53:30.570Z,1.92
2022-09-30T06:56:23.385Z,2.22
2022-09-30T06:58:50.792Z,2.55
2022-09-30T07:01:18.502Z,2.20
2022-09-30T07:03:46.593Z,2.30
2022-09-30T07:06:15.336Z,2.30
2022-09-30T07:08:42.892Z,2.30
2022-09-30T07:11:14.724Z,2.00
2022-09-30T07:13:46.022Z,2.20
2022-09-30T07:16:15.017Z,2.72
2022-09-30T07:18:42.979Z,3.15
2022-09-30T07:21:12.269Z,3.27
2022-09-30T07:23:47.840Z,2.87
2022-09-30T07:26:20.743Z,2.20
2022-09-30T07:28:49.290Z,1.90
2022-09-30T07:31:32.467Z,1.90
2022-09-30T07:34:02.001Z,1.80
2022-09-30T07:36:33.800Z,2.17
2022-09-30T07:39:06.900Z,1.50
2022-09-30T07:41:37.655Z,2.00
2022-09-30T07:44:07.745Z,1.38
2022-09-30T07:46:38.712Z,1.95
2022-09-30T07:49:12.766Z,1.60
2022-09-30T07:51:45.065Z,1.60
2022-09-30T07:54:18.187Z,1.85
2022-09-30T07:59:37.575Z,1.67
2022-09-30T08:02:06.860Z,2.08
2022-09-30T08:04:41.583Z,1.55
2022-09-30T08:07:11.590Z,1.42
2022-09-30T08:09:39.052Z,1.17
2022-09-30T08:12:07.862Z,1.70
2022-09-30T08:14:35.276Z,1.52
2022-09-30T08:17:03.089Z,1.52
2022-09-30T08:19:33.579Z,1.00
2022-09-30T08:24:28.879Z,0.80
2022-09-30T08:26:56.511Z,0.80
2022-09-30T08:29:50.116Z,0.93
2022-09-30T08:32:12.369Z,0.82
2022-09-30T08:34:39.737Z,0.80
2022-09-30T08:37:09.706Z,0.65
2022-09-30T08:39:38.844Z,0.80
2022-09-30T08:42:37.716Z,1.10
2022-09-30T08:45:21.271Z,2.30
2022-09-30T08:48:01.167Z,0.85
2022-09-30T08:50:40.662Z,0.80
2022-09-30T08:53:18.127Z,0.80
2022-09-30T08:55:49.552Z,1.20
2022-09-30T08:58:29.389Z,1.30
2022-09-30T09:01:20.711Z,0.80
2022-09-30T09:03:48.266Z,0.93
2022-09-30T09:06:34.261Z,0.90
2022-09-30T09:09:16.083Z,0.85
2022-09-30T09:11:58.500Z,0.85
2022-09-30T09:14:53.090Z,0.85
2022-09-30T09:18:10.889Z,0.52
2022-09-30T09:20:42.147Z,0.90
2022-09-30T09:23:14.162Z,1.05
2022-09-30T09:25:47.404Z,0.98
2022-09-30T09:28:39.611Z,0.70
2022-09-30T09:31:14.859Z,1.15
2022-09-30T09:33:43.438Z,0.75
2022-09-30T09:36:47.740Z,0.90
2022-09-30T09:39:36.544Z,1.30
2022-09-30T09:42:37.158Z,1.40
2022-09-30T09:45:22.533Z,1.20
2022-09-30T09:47:54.173Z,1.37
2022-09-30T09:50:35.188Z,1.20
2022-09-30T09:53:17.753Z,1.30
2022-09-30T09:55:46.450Z,1.00
2022-09-30T09:58:17.347Z,1.23
2022-09-30T10:03:40.603Z,1.67
2022-09-30T10:06:15.782Z,2.30
2022-09-30T10:08:55.522Z,3.38
2022-09-30T10:11:26.218Z,3.10
2022-09-30T10:13:59.738Z,4.15
2022-09-30T10:16:38.506Z,3.65
2022-09-30T10:19:24.955Z,1.33
2022-09-30T10:22:14.857Z,1.30
2022-09-30T10:24:42.555Z,1.38
2022-09-30T10:27:31.845Z,1.30
2022-09-30T10:29:59.189Z,1.70
2022-09-30T10:32:28.561Z,1.50
2022-09-30T10:35:07.118Z,1.42
2022-09-30T10:37:34.588Z,1.48
2022-09-30T10:40:16.502Z,1.60
2022-09-30T10:53:21.601Z,1.42
2022-09-30T10:55:49.465Z,1.80
2022-09-30T10:58:35.411Z,1.70
2022-09-30T11:01:28.205Z,2.17
2022-09-30T11:04:09.729Z,1.98
2022-09-30T11:06:40.958Z,1.70
2022-09-30T11:09:14.824Z,1.98
2022-09-30T11:11:48.715Z,1.98
2022-09-30T11:14:39.425Z,2.50
2022-09-30T11:17:09.762Z,3.83
2022-09-30T11:19:49.906Z,2.00
2022-09-30T11:22:43.435Z,1.95
2022-09-30T11:25:18.771Z,1.65
2022-09-30T11:28:12.043Z,2.63
2022-09-30T11:31:38.366Z,2.15
2022-09-30T11:34:36.948Z,1.92
2022-09-30T11:37:32.229Z,2.50
2022-09-30T11:40:23.398Z,2.78
2022-09-30T11:43:14.512Z,3.10
2022-09-30T11:46:00.192Z,2.67
2022-09-30T11:48:46.393Z,2.63
2022-09-30T11:51:28.313Z,2.90
2022-09-30T11:54:31.146Z,3.38
2022-09-30T11:57:07.465Z,2.78
2022-09-30T12:02:22.361Z,2.38
2022-09-30T12:04:54.685Z,2.00
2022-09-30T12:07:32.240Z,2.28
2022-09-30T12:10:05.937Z,2.10
2022-09-30T12:12:33.345Z,2.78
2022-09-30T12:15:05.729Z,1.90
2022-09-30T12:17:50.241Z,1.98
2022-09-30T12:21:02.295Z,1.98
2022-09-30T12:23:39.825Z,1.38
2022-09-30T12:26:07.378Z,1.45
2022-09-30T12:29:05.982Z,2.05
2022-09-30T12:31:36.576Z,1.75
2022-09-30T12:34:20.625Z,2.03
2022-09-30T12:37:35.750Z,2.20
2022-09-30T12:40:32.989Z,2.17
2022-09-30T12:45:27.378Z,2.67
2022-09-30T12:47:58.731Z,3.30
2022-09-30T12:50:30.356Z,2.75
2022-09-30T12:53:00.048Z,3.60
2022-09-30T12:55:32.663Z,3.60
2022-09-30T12:58:02.450Z,4.70
2022-09-30T13:00:34.673Z,4.03
2022-09-30T13:03:15.258Z,3.80
2022-09-30T15:01:00.816Z,4.53
2022-09-30T15:03:29.842Z,4.70
2022-09-30T15:05:58.196Z,4.93
2022-09-30T15:08:25.642Z,4.30
2022-09-30T15:10:55.281Z,4.57
2022-09-30T15:13:27.107Z,4.70
2022-09-30T15:15:55.261Z,4.93
2022-09-30T15:18:31.419Z,4.50
2022-09-30T15:21:04.754Z,4.80
2022-09-30T15:23:35.391Z,4.85
2022-09-30T15:26:03.717Z,4.57
2022-09-30T15:28:31.234Z,4.80
2022-09-30T15:30:59.717Z,5.38
2022-09-30T15:34:12.681Z,5.18
2022-09-30T15:36:40.473Z,4.57
2022-09-30T15:39:21.226Z,4.63
2022-09-30T15:41:48.976Z,4.93
2022-09-30T15:44:19.811Z,4.57
2022-09-30T15:47:20.363Z,5.05
2022-09-30T15:49:49.940Z,5.07
2022-09-30T15:52:30.249Z,5.25
2022-09-30T15:54:58.484Z,5.18
2022-09-30T15:57:45.271Z,5.43
2022-09-30T16:00:40.909Z,5.07
2022-09-30T16:03:09.290Z,6.10
2022-09-30T16:05:36.709Z,6.70
2022-09-30T16:08:09.730Z,5.72
2022-09-30T16:10:37.682Z,6.00
2022-09-30T16:13:07.075Z,5.50
2022-09-30T16:15:41.337Z,6.70
